Time;durP1;ratioP1;P1;durP2;ratioP2;P2;SDS_P1;SDS_P2;PMS_P1;PMS_P2;Temp;Humidity;BMP_temperature;BMP_pressure;BME280_temperature;BME280_humidity;BME280_pressure;Samples;Min_cycle;Max_cycle;Signal;HPM_P1;HPM_P2
2023/04/21 00:01:11;;;;;;;29.80;15.38;;;;;;;-148.88;100.00;76339.91;5094089;28;20099;-91
2023/04/21 00:03:37;;;;;;;31.05;15.70;;;;;;;-148.88;100.00;76325.69;5093996;28;20508;-91
2023/04/21 00:06:05;;;;;;;37.00;15.90;;;;;;;-148.88;100.00;76327.72;5093744;28;20036;-90
2023/04/21 00:08:31;;;;;;;30.58;15.32;;;;;;;-148.88;100.00;76325.69;5093661;28;20024;-90
2023/04/21 00:10:56;;;;;;;33.72;25.60;;;;;;;-148.88;100.00;76321.63;5093198;28;20130;-91
2023/04/21 00:13:22;;;;;;;31.20;15.93;;;;;;;-148.88;100.00;76339.91;5093380;28;20020;-90
2023/04/21 00:15:48;;;;;;;30.80;15.48;;;;;;;-148.88;100.00;76333.81;5093688;28;20020;-91
2023/04/21 00:18:13;;;;;;;37.10;27.27;;;;;;;-148.88;100.00;76325.69;5093347;28;20028;-91
2023/04/21 00:20:39;;;;;;;32.92;15.73;;;;;;;-148.88;100.00;76291.16;5093404;28;20474;-90
2023/04/21 00:23:04;;;;;;;34.13;16.52;;;;;;;-148.88;100.00;76321.63;5093174;28;20020;-90
2023/04/21 00:25:30;;;;;;;34.55;14.90;;;;;;;-148.88;100.00;76325.69;5093364;28;20019;-91
2023/04/21 00:27:55;;;;;;;30.42;14.68;;;;;;;-148.88;100.00;76325.69;5093425;28;20020;-90
2023/04/21 00:30:21;;;;;;;29.92;15.10;;;;;;;-148.88;100.00;76329.75;5094223;28;20489;-89
2023/04/21 00:32:46;;;;;;;31.95;16.10;;;;;;;-148.88;100.00;76323.66;5093212;28;20062;-89
2023/04/21 00:35:11;;;;;;;31.00;15.50;;;;;;;-148.88;100.00;76311.47;5093192;28;20028;-90
2023/04/21 00:37:37;;;;;;;31.73;16.02;;;;;;;-148.88;100.00;76317.56;5093238;28;20463;-89
2023/04/21 00:40:04;;;;;;;38.13;28.48;;;;;;;-148.88;100.00;76315.53;5091482;28;20032;-90
2023/04/21 00:42:29;;;;;;;39.33;28.08;;;;;;;-148.88;100.00;76313.50;5091634;28;20024;-90
2023/04/21 00:44:54;;;;;;;33.90;15.73;;;;;;;-148.88;100.00;76309.44;5092768;28;20066;-90
2023/04/21 00:47:19;;;;;;;29.30;14.95;;;;;;;-148.88;100.00;76299.28;5093135;28;20019;-90
2023/04/21 00:49:46;;;;;;;29.27;15.13;;;;;;;-148.88;100.00;76307.41;5093330;28;20081;-90
2023/04/21 00:52:12;;;;;;;30.73;16.17;;;;;;;-148.88;100.00;76309.44;5092695;28;20024;-90
2023/04/21 00:54:38;;;;;;;34.95;16.60;;;;;;;-148.88;100.00;76317.56;5092843;28;20032;-91
2023/04/21 00:57:06;;;;;;;31.65;15.93;;;;;;;-148.88;100.00;76317.56;5094586;28;20020;-90
2023/04/21 00:59:32;;;;;;;29.13;15.63;;;;;;;-148.88;100.00;76321.63;5092791;28;20027;-90
2023/04/21 01:01:57;;;;;;;35.60;16.35;;;;;;;-148.88;100.00;76325.69;5092982;28;20024;-90
2023/04/21 01:04:22;;;;;;;36.85;29.20;;;;;;;-148.88;100.00;76325.69;5093177;28;20027;-90
2023/04/21 01:06:48;;;;;;;37.78;29.70;;;;;;;-148.88;100.00;76321.63;5093340;28;20024;-90
2023/04/21 01:09:13;;;;;;;36.95;16.33;;;;;;;-148.88;100.00;76325.69;5093319;28;20031;-90
2023/04/21 01:11:38;;;;;;;32.53;16.83;;;;;;;-148.88;100.00;76335.84;5093093;28;20033;-90
2023/04/21 01:14:04;;;;;;;34.58;16.67;;;;;;;-148.88;100.00;76331.78;5093063;28;20107;-89
2023/04/21 01:16:33;;;;;;;31.85;16.65;;;;;;;-148.88;100.00;76337.88;5094525;28;20028;-91
2023/04/21 01:19:00;;;;;;;37.47;17.95;;;;;;;-148.88;100.00;76337.88;5092048;28;20028;-89
2023/04/21 01:21:27;;;;;;;32.55;16.50;;;;;;;-148.88;100.00;76333.81;5093056;28;20028;-90
2023/04/21 01:23:53;;;;;;;32.40;16.80;;;;;;;-148.88;100.00;76333.81;5093357;28;20027;-90
2023/04/21 01:26:39;;;;;;;30.02;16.17;;;;;;;-148.88;100.00;76331.78;5093367;28;20382;-90
2023/04/21 01:29:04;;;;;;;33.55;16.83;;;;;;;-148.88;100.00;76329.75;5093097;28;20036;-90
2023/04/21 01:31:30;;;;;;;37.92;17.33;;;;;;;-148.88;100.00;76325.69;5093103;28;20509;-90
2023/04/21 01:33:58;;;;;;;40.97;30.92;;;;;;;-148.88;100.00;76323.66;5092584;28;20028;-90
2023/04/21 01:36:23;;;;;;;33.17;16.15;;;;;;;-148.88;100.00;76327.72;5096174;28;20024;-91
2023/04/21 01:38:48;;;;;;;37.35;17.67;;;;;;;-148.88;100.00;76319.59;5096828;28;20024;-89
2023/04/21 01:41:14;;;;;;;35.70;17.48;;;;;;;-148.88;100.00;76313.50;5095428;28;20508;-89
2023/04/21 01:43:40;;;;;;;35.25;17.58;;;;;;;-148.88;100.00;76309.44;5095184;28;20023;-88
2023/04/21 01:46:05;;;;;;;35.35;17.45;;;;;;;-148.88;100.00;76325.69;5096250;28;20486;-89
2023/04/21 01:48:30;;;;;;;32.97;17.38;;;;;;;-148.88;100.00;76317.56;5097302;28;20028;-88
2023/04/21 01:50:56;;;;;;;33.47;16.95;;;;;;;-148.88;100.00;76297.25;5097026;28;20024;-87
2023/04/21 01:53:21;;;;;;;35.58;18.70;;;;;;;-148.88;100.00;76297.25;5095451;28;20020;-87
2023/04/21 01:55:47;;;;;;;35.33;17.73;;;;;;;-148.88;100.00;76285.06;5096603;28;20050;-87
2023/04/21 01:58:12;;;;;;;37.33;17.90;;;;;;;-148.88;100.00;76278.97;5095605;28;20100;-86
2023/04/21 02:00:37;;;;;;;40.50;18.13;;;;;;;-148.88;100.00;76281.00;5096300;28;20028;-87
2023/04/21 02:03:03;;;;;;;36.83;17.63;;;;;;;-148.88;100.00;76272.88;5094555;28;20031;-88
2023/04/21 02:05:28;;;;;;;34.50;16.83;;;;;;;-148.88;100.00;76270.84;5095722;28;20059;-87
2023/04/21 02:07:54;;;;;;;36.83;17.67;;;;;;;-148.88;100.00;76268.81;5095650;28;20044;-87
2023/04/21 02:10:20;;;;;;;41.55;32.33;;;;;;;-148.88;100.00;76260.69;5096031;28;20047;-87
2023/04/21 02:12:45;;;;;;;35.33;17.52;;;;;;;-148.88;100.00;76264.75;5094344;28;20485;-86
2023/04/21 02:15:11;;;;;;;34.72;17.67;;;;;;;-148.88;100.00;76264.75;5096067;28;20438;-88
2023/04/21 02:17:36;;;;;;;35.20;16.30;;;;;;;-148.88;100.00;76276.94;5095760;28;20023;-87
2023/04/21 02:20:03;;;;;;;34.25;16.98;;;;;;;-148.88;100.00;76260.69;5095198;28;20059;-86
2023/04/21 02:22:28;;;;;;;37.25;17.40;;;;;;;-148.88;100.00;76260.69;5095636;28;20043;-87
2023/04/21 02:24:53;;;;;;;34.80;18.65;;;;;;;-148.88;100.00;76285.06;5095245;28;20478;-86
2023/04/21 02:27:19;;;;;;;34.92;18.42;;;;;;;-148.88;100.00;76285.06;5095238;28;20108;-87
2023/04/21 02:29:44;;;;;;;33.00;17.98;;;;;;;-148.88;100.00;76291.16;5093902;28;20486;-88
2023/04/21 02:32:10;;;;;;;41.25;30.45;;;;;;;-148.88;100.00;76293.19;5095023;28;20020;-87
2023/04/21 02:34:35;;;;;;;36.95;17.23;;;;;;;-148.88;100.00;76283.03;5095782;28;20032;-87
2023/04/21 02:37:01;;;;;;;34.92;17.48;;;;;;;-148.88;100.00;76276.94;5095372;28;20046;-87
2023/04/21 02:39:26;;;;;;;40.17;18.00;;;;;;;-148.88;100.00;76264.75;5095851;28;20016;-88
2023/04/21 02:41:51;;;;;;;36.15;17.92;;;;;;;-148.88;100.00;76248.50;5094946;28;20031;-87
2023/04/21 02:44:17;;;;;;;36.90;30.02;;;;;;;-148.88;100.00;76260.69;5094812;28;20100;-88
2023/04/21 02:46:42;;;;;;;37.65;19.00;;;;;;;-148.88;100.00;76266.78;5094836;28;20382;-87
2023/04/21 02:49:08;;;;;;;37.20;17.60;;;;;;;-148.88;100.00;76264.75;5094741;28;20024;-87
2023/04/21 02:51:34;;;;;;;40.80;18.85;;;;;;;-148.88;100.00;76258.66;5094288;28;20020;-87
2023/04/21 02:53:59;;;;;;;34.55;17.80;;;;;;;-148.88;100.00;76264.75;5094709;28;20034;-87
2023/04/21 02:56:25;;;;;;;34.95;18.30;;;;;;;-148.88;100.00;76268.81;5095328;28;20050;-87
2023/04/21 02:58:50;;;;;;;36.20;18.40;;;;;;;-148.88;100.00;76281.00;5094257;28;20024;-86
2023/04/21 03:01:15;;;;;;;33.38;18.40;;;;;;;-148.88;100.00;76270.84;5093585;28;20119;-86
2023/04/21 03:03:40;;;;;;;32.72;18.35;;;;;;;-148.88;100.00;76283.03;5096836;28;20020;-87
2023/04/21 03:06:06;;;;;;;41.85;30.25;;;;;;;-148.88;100.00;76285.06;5094938;28;20475;-86
2023/04/21 03:08:34;;;;;;;39.50;31.15;;;;;;;-148.88;100.00;76285.06;5094593;28;20031;-87
2023/04/21 03:11:00;;;;;;;31.02;16.77;;;;;;;-148.88;100.00;76287.09;5094711;28;20024;-88
2023/04/21 03:13:25;;;;;;;38.50;30.55;;;;;;;-148.88;100.00;76289.13;5093174;28;20024;-87
2023/04/21 03:15:51;;;;;;;35.15;17.88;;;;;;;-148.88;100.00;76289.13;5094884;28;20027;-87
2023/04/21 03:18:16;;;;;;;33.53;17.30;;;;;;;-148.88;100.00;76301.31;5094213;28;20069;-88
2023/04/21 03:20:42;;;;;;;37.75;17.75;;;;;;;-148.88;100.00;76307.41;5094539;28;20016;-87
2023/04/21 03:23:07;;;;;;;37.25;17.63;;;;;;;-148.88;100.00;76313.50;5094172;28;20039;-87
2023/04/21 03:25:33;;;;;;;35.95;17.90;;;;;;;-148.88;100.00;76305.38;5094343;28;20020;-88
2023/04/21 03:27:58;;;;;;;34.47;16.80;;;;;;;-148.88;100.00;76307.41;5092853;28;20488;-87
2023/04/21 03:30:25;;;;;;;30.67;16.92;;;;;;;-148.88;100.00;76307.41;5094163;28;20031;-87
2023/04/21 03:32:50;;;;;;;34.13;17.30;;;;;;;-148.88;100.00;76315.53;5093774;28;20059;-87
2023/04/21 03:35:16;;;;;;;35.90;18.52;;;;;;;-148.88;100.00;76311.47;5094053;28;20112;-87
2023/04/21 03:37:41;;;;;;;31.77;17.38;;;;;;;-148.88;100.00;76317.56;5094274;28;20035;-90
2023/04/21 03:40:07;;;;;;;32.80;16.70;;;;;;;-148.88;100.00;76321.63;5094722;28;20047;-89
2023/04/21 03:42:34;;;;;;;31.67;17.35;;;;;;;-148.88;100.00;76317.56;5092643;28;20050;-87
2023/04/21 03:45:07;;;;;;;37.50;17.52;;;;;;;-148.88;100.00;76319.59;5093757;28;20032;-87
2023/04/21 03:47:33;;;;;;;30.50;16.60;;;;;;;-148.88;100.00;76325.69;5093426;28;20428;-87
2023/04/21 03:49:58;;;;;;;39.75;19.10;;;;;;;-148.88;100.00;76313.50;5093328;28;20039;-89
2023/04/21 03:52:24;;;;;;;37.70;18.25;;;;;;;-148.88;100.00;76331.78;5093274;28;20023;-90
2023/04/21 03:54:49;;;;;;;31.40;16.73;;;;;;;-148.88;100.00;76321.63;5094253;28;20052;-90
2023/04/21 03:57:15;;;;;;;42.85;31.95;;;;;;;-148.88;100.00;76309.44;5092306;28;20062;-91
2023/04/21 03:59:41;;;;;;;39.65;17.75;;;;;;;-148.88;100.00;76311.47;5093933;28;20529;-89
2023/04/21 04:02:07;;;;;;;36.20;18.70;;;;;;;-148.88;100.00;76313.50;5094426;28;20486;-89
2023/04/21 04:04:32;;;;;;;30.00;16.73;;;;;;;-148.88;100.00;76307.41;5093964;28;20032;-90
2023/04/21 04:06:58;;;;;;;35.10;17.38;;;;;;;-148.88;100.00;76297.25;5093559;28;20051;-88
2023/04/21 04:09:23;;;;;;;38.50;18.10;;;;;;;-148.88;100.00;76291.16;5093786;28;20119;-89
2023/04/21 04:11:49;;;;;;;35.30;19.13;;;;;;;-148.88;100.00;76297.25;5093731;28;20020;-90
2023/04/21 04:14:14;;;;;;;43.00;32.25;;;;;;;-148.88;100.00;76283.03;5091778;28;20044;-90
2023/04/21 04:16:40;;;;;;;32.60;16.80;;;;;;;-148.88;100.00;76272.88;5092290;28;20347;-89
2023/04/21 04:19:05;;;;;;;35.25;18.15;;;;;;;-148.88;100.00;76270.84;5093792;28;20020;-90
2023/04/21 04:21:31;;;;;;;43.55;30.25;;;;;;;-148.88;100.00;76264.75;5093334;28;20023;-89
2023/04/21 04:23:57;;;;;;;35.33;17.30;;;;;;;-148.88;100.00;76260.69;5092461;28;20016;-90
2023/04/21 04:26:24;;;;;;;29.98;16.48;;;;;;;-148.88;100.00;76256.63;5094341;28;20024;-91
2023/04/21 04:28:50;;;;;;;39.45;30.58;;;;;;;-148.88;100.00;76224.13;5094496;28;20024;-90
2023/04/21 04:31:16;;;;;;;36.85;18.17;;;;;;;-148.88;100.00;76224.13;5092035;28;20020;-90
2023/04/21 04:33:42;;;;;;;31.77;17.10;;;;;;;-148.88;100.00;76220.06;5094349;28;20035;-90
2023/04/21 04:36:13;;;;;;;33.70;16.98;;;;;;;-148.88;100.00;76222.09;5095257;28;20020;-92
2023/04/21 04:38:39;;;;;;;32.88;17.25;;;;;;;-148.88;100.00;76216.00;5095495;28;20028;-89
2023/04/21 04:41:05;;;;;;;30.83;16.10;;;;;;;-148.88;100.00;76209.91;5092818;28;20020;-90
2023/04/21 04:43:32;;;;;;;33.00;16.50;;;;;;;-148.88;100.00;76195.69;5093877;28;20443;-90
2023/04/21 04:45:58;;;;;;;32.88;16.67;;;;;;;-148.88;100.00;76199.75;5094093;28;20077;-91
2023/04/21 04:48:24;;;;;;;34.45;17.17;;;;;;;-148.88;100.00;76238.34;5095512;28;20020;-90
2023/04/21 04:50:49;;;;;;;35.90;28.27;;;;;;;-148.88;100.00;76240.38;5092723;28;20109;-91
2023/04/21 04:53:15;;;;;;;34.25;16.65;;;;;;;-148.88;100.00;76232.25;5094590;28;20020;-91
2023/04/21 04:55:40;;;;;;;36.60;28.25;;;;;;;-148.88;100.00;76234.28;5094407;28;20038;-91
2023/04/21 04:58:05;;;;;;;28.98;15.75;;;;;;;-148.88;100.00;76240.38;5095661;28;20027;-90
2023/04/21 05:00:31;;;;;;;33.10;16.92;;;;;;;-148.88;100.00;76240.38;5095812;28;20020;-92
2023/04/21 05:02:56;;;;;;;32.08;15.93;;;;;;;-148.88;100.00;76238.34;5094335;28;20030;-88
2023/04/21 05:05:23;;;;;;;31.30;15.52;;;;;;;-148.88;100.00;76244.44;5094146;28;20031;-91
2023/04/21 05:07:49;;;;;;;31.13;16.23;;;;;;;-148.88;100.00;76234.28;5093144;28;20038;-91
2023/04/21 05:10:14;;;;;;;30.83;17.40;;;;;;;-148.88;100.00;76228.19;5096199;28;20462;-90
2023/04/21 05:12:39;;;;;;;33.25;17.45;;;;;;;-148.88;100.00;76222.09;5098368;28;20367;-89
2023/04/21 05:15:05;;;;;;;31.38;26.10;;;;;;;-148.88;100.00;76216.00;5097999;28;20402;-89
2023/04/21 05:17:34;;;;;;;30.10;16.65;;;;;;;-148.88;100.00;76207.88;5101938;28;20394;-88
2023/04/21 05:20:00;;;;;;;30.20;16.20;;;;;;;-148.88;100.00;76211.94;5100253;28;20027;-88
2023/04/21 05:22:25;;;;;;;30.45;14.90;;;;;;;-148.88;100.00;76213.97;5099603;28;20032;-88
2023/04/21 05:24:53;;;;;;;35.50;25.73;;;;;;;-148.88;100.00;76211.94;5099893;28;20019;-89
2023/04/21 05:27:19;;;;;;;30.95;15.70;;;;;;;-148.88;100.00;76211.94;5099542;28;20024;-89
2023/04/21 05:29:44;;;;;;;32.55;16.27;;;;;;;-148.88;100.00;76207.88;5099083;28;20393;-89
2023/04/21 05:32:11;;;;;;;27.40;15.60;;;;;;;-148.88;100.00;76224.13;5098687;28;20106;-88
2023/04/21 05:34:36;;;;;;;32.28;15.23;;;;;;;-148.88;100.00;76218.03;5098849;28;20028;-89
2023/04/21 05:37:02;;;;;;;33.47;16.50;;;;;;;-148.88;100.00;76213.97;5098867;28;20351;-89
2023/04/21 05:39:27;;;;;;;28.48;16.17;;;;;;;-148.88;100.00;76216.00;5099806;28;20058;-89
2023/04/21 05:41:52;;;;;;;33.83;25.58;;;;;;;-148.88;100.00;76207.88;5099061;28;20505;-90
2023/04/21 05:44:18;;;;;;;36.55;16.40;;;;;;;-148.88;100.00;76201.78;5098662;28;20157;-89
2023/04/21 05:46:43;;;;;;;31.30;24.33;;;;;;;-148.88;100.00;76189.59;5100946;28;20114;-89
2023/04/21 05:49:08;;;;;;;29.67;15.88;;;;;;;-148.88;100.00;76183.50;5099997;28;20111;-89
2023/04/21 05:51:33;;;;;;;30.50;14.75;;;;;;;-148.88;100.00;76171.31;5099224;28;20043;-89
2023/04/21 05:53:59;;;;;;;25.70;14.43;;;;;;;-148.88;100.00;76169.28;5099644;28;20020;-89
2023/04/21 05:56:24;;;;;;;31.33;23.67;;;;;;;-148.88;100.00;76161.16;5099240;28;20020;-89
2023/04/21 05:58:49;;;;;;;25.25;13.82;;;;;;;-148.88;100.00;76151.00;5099108;28;20035;-90
2023/04/21 06:01:15;;;;;;;31.42;14.82;;;;;;;-148.88;100.00;76138.81;5098459;28;20108;-89
2023/04/21 06:03:40;;;;;;;26.98;14.82;;;;;;;-148.88;100.00;76134.72;5096627;28;20055;-89
2023/04/21 06:06:05;;;;;;;30.55;22.48;;;;;;;-148.88;100.00;76122.56;5098674;28;20020;-89
2023/04/21 06:08:31;;;;;;;27.98;15.07;;;;;;;-148.88;100.00;76118.47;5098128;28;20089;-89
2023/04/21 06:10:56;;;;;;;30.73;15.43;;;;;;;-148.88;100.00;76112.41;5096068;28;20032;-90
2023/04/21 06:13:22;;;;;;;28.73;20.92;;;;;;;-148.88;100.00;76108.31;5097251;28;20027;-89
2023/04/21 06:15:47;;;;;;;30.65;13.80;;;;;;;-148.88;100.00;76098.16;5096522;28;20170;-90
2023/04/21 06:18:12;;;;;;;28.13;21.52;;;;;;;-148.88;100.00;76090.03;5098172;28;20016;-89
2023/04/21 06:20:39;;;;;;;29.15;21.10;;;;;;;-148.88;100.00;76077.84;5097664;28;20023;-90
2023/04/21 06:23:05;;;;;;;27.80;20.33;;;;;;;-148.88;100.00;76073.78;5098757;28;20016;-89
2023/04/21 06:25:30;;;;;;;30.48;21.65;;;;;;;-148.88;100.00;76067.69;5097970;28;20028;-90
2023/04/21 06:27:55;;;;;;;23.33;13.68;;;;;;;-148.88;100.00;76057.53;5096845;28;20085;-90
2023/04/21 06:30:21;;;;;;;22.70;13.43;;;;;;;-148.88;100.00;76043.31;5097534;28;20054;-90
2023/04/21 06:32:47;;;;;;;26.55;19.90;;;;;;;-148.88;100.00;76037.22;5098959;28;20027;-89
2023/04/21 06:35:14;;;;;;;29.55;20.75;;;;;;;-148.88;100.00;76027.06;5102272;28;20028;-90
2023/04/21 06:37:42;;;;;;;24.52;20.05;;;;;;;-148.88;100.00;76016.91;5102161;28;20024;-89
2023/04/21 06:40:08;;;;;;;27.05;20.45;;;;;;;-148.88;100.00;75994.56;5101421;28;20031;-89
2023/04/21 06:42:33;;;;;;;26.58;20.15;;;;;;;-148.88;100.00;75988.47;5100780;28;20032;-89
2023/04/21 06:44:58;;;;;;;23.08;13.77;;;;;;;-148.88;100.00;75972.22;5099855;28;20106;-89
2023/04/21 06:47:23;;;;;;;25.02;19.23;;;;;;;-148.88;100.00;75970.19;5099323;28;20039;-90
2023/04/21 06:49:49;;;;;;;27.05;19.73;;;;;;;-148.88;100.00;75960.03;5099071;28;20099;-90
2023/04/21 06:52:14;;;;;;;24.17;18.90;;;;;;;-148.88;100.00;75943.78;5099888;28;20020;-90
2023/04/21 06:54:40;;;;;;;25.33;18.75;;;;;;;-148.88;100.00;75935.66;5097266;28;20028;-89
2023/04/21 06:57:05;;;;;;;23.05;17.38;;;;;;;-148.88;100.00;75931.59;5095817;28;20062;-89
2023/04/21 06:59:30;;;;;;;26.08;17.55;;;;;;;-148.88;100.00;75923.47;5097074;28;20440;-90
2023/04/21 07:01:56;;;;;;;20.38;16.65;;;;;;;-148.88;100.00;75913.31;5097550;28;20056;-90
2023/04/21 07:04:21;;;;;;;22.58;16.98;;;;;;;-148.88;100.00;75905.19;5096143;28;20040;-89
2023/04/21 07:06:47;;;;;;;21.33;16.15;;;;;;;-148.88;100.00;75905.19;5095285;28;20437;-90
2023/04/21 07:09:13;;;;;;;18.92;11.30;;;;;;;-148.88;100.00;75895.03;5096057;28;20052;-90
2023/04/21 07:11:38;;;;;;;27.88;16.77;;;;;;;-148.88;100.00;75884.88;5097038;28;20531;-90
2023/04/21 07:14:03;;;;;;;21.60;16.02;;;;;;;-148.88;100.00;75870.66;5097153;28;20055;-90
2023/04/21 07:16:29;;;;;;;23.52;16.42;;;;;;;-148.88;100.00;75868.63;5096306;28;20357;-90
2023/04/21 07:18:54;;;;;;;19.77;15.80;;;;;;;-148.88;100.00;75866.59;5095770;28;20031;-89
2023/04/21 07:21:20;;;;;;;21.80;15.55;;;;;;;-148.88;100.00;75858.47;5096303;28;20031;-90
2023/04/21 07:23:45;;;;;;;20.17;15.10;;;;;;;-148.88;100.00;75864.56;5094899;28;20024;-89
2023/04/21 07:26:10;;;;;;;24.83;15.95;;;;;;;-148.88;100.00;75840.19;5095444;28;20073;-89
2023/04/21 07:28:37;;;;;;;22.13;15.70;;;;;;;-148.88;100.00;75830.03;5095534;28;20107;-89
2023/04/21 07:31:02;;;;;;;23.83;15.50;;;;;;;-148.88;100.00;75821.91;5093646;28;20035;-89
2023/04/21 07:33:27;;;;;;;19.60;14.88;;;;;;;-148.88;100.00;75813.78;5094297;28;20036;-89
2023/04/21 07:35:53;;;;;;;23.40;16.23;;;;;;;-148.88;100.00;75797.53;5095320;28;20043;-90
2023/04/21 07:38:18;;;;;;;22.20;15.38;;;;;;;-148.88;99.24;75801.59;5096319;28;20393;-90
2023/04/21 07:40:43;;;;;;;22.48;15.45;;;;;;;-148.88;100.00;75787.38;5095916;28;20043;-90
2023/04/21 07:43:09;;;;;;;21.35;15.10;;;;;;;-148.88;98.77;75785.34;5096609;28;20023;-91
2023/04/21 07:45:34;;;;;;;20.15;14.77;;;;;;;-148.88;97.88;75785.34;5094918;28;20024;-90
2023/04/21 07:48:00;;;;;;;20.25;14.07;;;;;;;-148.88;96.77;75785.34;5096501;28;20592;-89
2023/04/21 07:50:25;;;;;;;19.98;14.85;;;;;;;-148.88;98.89;75785.34;5097023;28;20043;-90
2023/04/21 07:52:56;;;;;;;19.08;14.82;;;;;;;-148.88;98.24;75779.25;5072107;28;20446;-78
2023/04/21 07:55:22;;;;;;;20.63;14.70;;;;;;;-148.88;97.90;75785.34;5071661;28;20480;-77
2023/04/21 07:57:47;;;;;;;18.52;14.80;;;;;;;-148.88;98.58;75769.09;5071701;28;20048;-76
2023/04/21 08:00:13;;;;;;;20.40;14.45;;;;;;;-148.88;98.07;75752.84;5069663;28;20501;-76
2023/04/21 08:02:38;;;;;;;20.98;13.75;;;;;;;-148.88;98.37;75738.63;5069714;28;20471;-76
2023/04/21 08:05:04;;;;;;;21.30;14.40;;;;;;;-148.88;98.09;75714.25;5069893;28;20023;-76
2023/04/21 08:07:30;;;;;;;20.83;14.35;;;;;;;-148.88;98.10;75689.88;5069661;28;20059;-76
2023/04/21 08:09:55;;;;;;;17.00;13.70;;;;;;;-148.88;96.45;75689.88;5069578;28;20021;-76
2023/04/21 08:12:21;;;;;;;19.42;13.98;;;;;;;-148.88;95.50;75673.63;5069477;28;20109;-76
2023/04/21 08:14:46;;;;;;;18.70;13.43;;;;;;;-148.88;94.24;75659.41;5069493;28;20120;-76
2023/04/21 08:17:11;;;;;;;21.98;14.05;;;;;;;-148.88;94.58;75639.09;5069612;28;20025;-76
2023/04/21 08:19:37;;;;;;;20.80;13.60;;;;;;;-148.88;93.82;75596.44;5069570;28;20024;-76
2023/04/21 08:22:02;;;;;;;22.40;14.40;;;;;;;-148.88;92.00;75576.13;5069720;28;20032;-75
2023/04/21 08:24:29;;;;;;;18.35;13.85;;;;;;;-148.88;91.94;75529.44;5069447;28;20028;-76
2023/04/21 08:26:56;;;;;;;18.48;13.18;;;;;;;-148.88;90.13;75527.41;5069577;28;20069;-76
2023/04/21 08:29:22;;;;;;;22.08;13.65;;;;;;;-148.88;87.91;75527.41;5069123;28;20035;-76
2023/04/21 08:31:47;;;;;;;18.55;12.18;;;;;;;-148.88;87.25;75513.19;5067665;28;20021;-76
2023/04/21 08:34:12;;;;;;;16.73;12.90;;;;;;;-148.88;85.61;75505.06;5069237;28;20028;-76
2023/04/21 08:36:38;;;;;;;18.17;12.73;;;;;;;-148.88;86.42;75494.91;5068841;28;20023;-76
2023/04/21 08:39:03;;;;;;;21.92;13.63;;;;;;;-148.88;90.00;75462.41;5067542;28;20475;-76
2023/04/21 08:41:29;;;;;;;19.83;13.95;;;;;;;-148.88;87.47;75429.91;5068973;28;20028;-76
2023/04/21 08:43:54;;;;;;;17.83;12.23;;;;;;;-148.88;83.54;75431.94;5067366;28;20024;-76
2023/04/21 08:46:20;;;;;;;19.23;12.13;;;;;;;-148.88;83.60;75409.59;5068629;28;20028;-76
2023/04/21 08:48:46;;;;;;;17.27;12.57;;;;;;;-148.88;84.55;75395.38;5068594;28;20096;-76
2023/04/21 08:51:19;;;;;;;23.15;13.25;;;;;;;-148.88;84.36;75381.16;5068324;28;20141;-77
2023/04/21 08:53:45;;;;;;;15.65;12.73;;;;;;;-148.88;86.99;75366.94;5068504;28;20033;-76
2023/04/21 08:56:10;;;;;;;17.95;12.73;;;;;;;-148.88;85.91;75338.50;5067173;28;20120;-76
2023/04/21 08:58:35;;;;;;;20.83;12.25;;;;;;;-148.88;83.46;75322.25;5068482;28;20139;-75
2023/04/21 09:01:00;;;;;;;16.00;11.98;;;;;;;-148.88;82.13;75314.13;5068706;28;20110;-76
2023/04/21 09:03:27;;;;;;;16.85;11.95;;;;;;;-148.88;79.86;75330.38;5058711;28;20025;-76
2023/04/21 09:05:57;;;;;;;16.05;11.70;;;;;;;-148.88;79.55;75326.31;5055069;28;20483;-76
2023/04/21 09:08:24;;;;;;;14.25;11.30;;;;;;;-148.88;81.29;75293.81;5055010;28;20138;-76
2023/04/21 09:10:50;;;;;;;14.73;11.73;;;;;;;-148.88;81.53;75277.59;5055043;28;20041;-76
2023/04/21 09:13:17;;;;;;;15.77;12.20;;;;;;;-148.88;79.19;75251.19;5055283;28;20040;-76
2023/04/21 09:15:46;;;;;;;16.17;11.57;;;;;;;-148.88;79.26;75245.09;5055014;28;20082;-76
2023/04/21 09:18:16;;;;;;;16.63;11.43;;;;;;;-148.88;78.38;75261.34;5055088;28;20029;-76
2023/04/21 09:20:43;;;;;;;18.92;11.13;;;;;;;-148.88;76.35;75226.81;5054934;28;20033;-76
2023/04/21 09:23:09;;;;;;;20.27;11.85;;;;;;;-148.88;76.47;75228.84;5054673;28;20498;-76
2023/04/21 09:25:38;;;;;;;13.48;10.57;;;;;;;-148.88;74.83;75222.75;5054554;28;20029;-76
2023/04/21 09:28:07;;;;;;;16.90;10.43;;;;;;;-148.88;75.88;75180.09;5053192;28;20028;-76
2023/04/21 09:30:35;;;;;;;14.15;11.13;;;;;;;-148.88;74.24;75180.09;5053056;28;20025;-76
2023/04/21 09:33:00;;;;;;;16.25;11.60;;;;;;;-148.88;75.97;75145.56;5054805;28;20054;-76
2023/04/21 09:35:32;;;;;;;17.05;11.05;;;;;;;-148.88;75.20;75129.31;5054758;28;20021;-76
2023/04/21 09:37:59;;;;;;;17.73;10.90;;;;;;;-148.88;74.12;75125.25;5053017;28;20438;-76
2023/04/21 09:40:24;;;;;;;15.35;11.10;;;;;;;-148.88;75.30;75086.69;5054354;28;20025;-76
2023/04/21 09:42:50;;;;;;;14.30;10.95;;;;;;;-148.88;73.42;75088.72;5054310;28;20017;-76
2023/04/21 09:45:18;;;;;;;15.25;10.27;;;;;;;-148.88;72.72;75109.00;5052952;28;20016;-76
2023/04/21 09:47:48;;;;;;;18.40;10.50;;;;;;;-148.88;72.44;75127.28;5054175;28;20029;-76
2023/04/21 09:50:14;;;;;;;17.92;10.93;;;;;;;-148.88;75.70;75094.81;5054163;28;20055;-76
2023/04/21 09:52:43;;;;;;;15.77;9.95;;;;;;;-148.88;70.98;75084.66;5052747;28;20055;-76
2023/04/21 09:55:11;;;;;;;15.18;10.25;;;;;;;-148.88;71.80;75068.41;5052814;28;20040;-76
2023/04/21 09:57:40;;;;;;;14.70;10.10;;;;;;;-148.88;71.09;75037.94;5054089;28;20071;-76
2023/04/21 10:00:09;;;;;;;15.38;9.80;;;;;;;-148.88;69.41;75033.88;5054360;28;20024;-76
2023/04/21 10:02:46;;;;;;;15.15;9.48;;;;;;;-148.88;70.23;75023.72;5054055;28;20039;-76
2023/04/21 10:05:12;;;;;;;17.40;9.93;;;;;;;-148.88;68.41;75017.63;5054018;28;20020;-76
2023/04/21 10:07:37;;;;;;;14.73;9.20;;;;;;;-148.88;69.96;75017.63;5053124;28;20023;-76
2023/04/21 10:10:07;;;;;;;13.35;8.75;;;;;;;-148.88;67.42;75029.81;5054521;28;20024;-76
2023/04/21 10:12:35;;;;;;;12.88;8.57;;;;;;;-148.88;67.62;75013.56;5054094;28;20107;-76
2023/04/21 10:15:05;;;;;;;14.90;9.27;;;;;;;-148.88;68.57;74970.91;5051533;28;20033;-76
2023/04/21 10:17:33;;;;;;;13.77;8.65;;;;;;;-148.88;65.82;74936.41;5053794;28;20024;-76
2023/04/21 10:19:59;;;;;;;19.65;8.82;;;;;;;-148.88;64.00;74912.03;5053658;28;20029;-76
2023/04/21 10:22:32;;;;;;;14.88;8.40;;;;;;;-148.88;63.23;74922.19;5052310;28;20028;-76
2023/04/21 10:24:59;;;;;;;14.68;8.60;;;;;;;-148.88;63.42;74907.97;5053562;28;20100;-76
2023/04/21 10:27:38;;;;;;;15.30;8.32;;;;;;;-148.88;62.81;74901.88;5053795;28;20036;-76
2023/04/21 10:30:25;;;;;;;12.27;7.55;;;;;;;-148.88;59.93;74918.13;5052828;28;20020;-76
2023/04/21 10:33:02;;;;;;;11.13;7.93;;;;;;;-148.88;59.28;74887.66;5053506;28;20025;-75
2023/04/21 10:35:57;;;;;;;14.95;7.95;;;;;;;-148.88;63.15;74834.84;5053146;28;20040;-76
2023/04/21 10:38:40;;;;;;;13.18;8.68;;;;;;;-148.88;61.52;74820.63;5051911;28;20029;-75
2023/04/21 10:41:32;;;;;;;15.38;7.95;;;;;;;-148.88;59.38;74761.75;5053429;28;20024;-76
2023/04/21 10:44:10;;;;;;;14.73;7.35;;;;;;;-148.88;57.48;74782.06;5050738;28;20045;-76
2023/04/21 10:46:46;;;;;;;14.05;7.53;;;;;;;-148.88;57.94;74802.38;5053384;28;20029;-76
2023/04/21 10:49:19;;;;;;;12.70;7.38;;;;;;;-148.88;56.82;74798.31;5053685;28;20021;-75
2023/04/21 10:51:57;;;;;;;;;;;;;;;-148.88;56.33;74794.25;5053366;28;20074;-75
2023/04/21 10:54:24;;;;;;;10.45;6.95;;;;;;;-148.88;56.31;74778.00;5051603;28;19912;-76